createdAt,value
2022-12-06T00:04:39.986Z,30.83
2022-12-06T00:15:05.238Z,30.33
2022-12-06T00:17:42.902Z,33.90
2022-12-06T00:20:13.752Z,31.92
2022-12-06T00:23:15.675Z,30.85
2022-12-06T00:25:43.436Z,30.55
2022-12-06T00:29:20.114Z,29.70
2022-12-06T00:31:50.547Z,34.22
2022-12-06T00:34:49.181Z,30.52
2022-12-06T00:37:38.607Z,26.75
2022-12-06T00:40:23.206Z,29.33
2022-12-06T00:43:15.014Z,30.58
2022-12-06T00:46:37.881Z,29.42
2022-12-06T00:49:14.706Z,29.17
2022-12-06T00:52:47.122Z,32.05
2022-12-06T00:55:37.781Z,31.15
2022-12-06T00:58:23.030Z,28.75
2022-12-06T01:01:12.149Z,30.40
2022-12-06T01:04:02.276Z,27.65
2022-12-06T01:06:51.337Z,28.10
2022-12-06T01:09:35.595Z,28.58
2022-12-06T01:12:18.458Z,30.65
2022-12-06T01:15:13.713Z,29.98
2022-12-06T01:18:41.856Z,28.95
2022-12-06T01:20:47.620Z,28.23
2022-12-06T01:23:21.515Z,31.60
2022-12-06T01:25:54.098Z,30.20
2022-12-06T01:31:15.143Z,31.52
2022-12-06T01:33:51.345Z,38.63
2022-12-06T01:36:28.210Z,33.28
2022-12-06T01:39:09.378Z,30.75
2022-12-06T01:41:47.504Z,29.42
2022-12-06T01:44:42.378Z,30.08
2022-12-06T01:47:31.870Z,32.15
2022-12-06T01:50:13.415Z,40.13
2022-12-06T01:53:20.232Z,31.80
2022-12-06T01:55:56.593Z,44.20
2022-12-06T01:58:34.563Z,61.60
2022-12-06T02:01:19.451Z,54.30
2022-12-06T02:04:04.214Z,71.93
2022-12-06T02:07:26.119Z,115.93
2022-12-06T02:09:43.321Z,50.03
2022-12-06T02:12:37.867Z,47.75
2022-12-06T02:15:17.232Z,71.13
2022-12-06T02:18:21.167Z,65.93
2022-12-06T02:21:24.769Z,94.78
2022-12-06T02:24:30.495Z,74.28
2022-12-06T02:27:36.851Z,77.43
2022-12-06T02:31:14.738Z,55.58
2022-12-06T02:38:24.973Z,86.35
2022-12-06T02:41:21.406Z,71.18
2022-12-06T02:52:01.355Z,39.60
2022-12-06T03:07:20.533Z,93.45
2022-12-06T03:10:39.266Z,92.82
2022-12-06T03:14:26.511Z,54.70
2022-12-06T03:17:46.540Z,57.00
2022-12-06T03:21:16.204Z,56.67
2022-12-06T03:31:38.486Z,65.63
2022-12-06T03:35:12.579Z,38.85
2022-12-06T03:42:51.707Z,54.40
2022-12-06T03:45:43.509Z,53.97
2022-12-06T03:50:00.545Z,55.20
2022-12-06T03:54:36.329Z,100.28
2022-12-06T04:00:21.906Z,78.45
2022-12-06T04:03:22.492Z,88.85
2022-12-06T04:07:18.265Z,73.65
2022-12-06T04:18:15.168Z,91.45
2022-12-06T04:21:43.776Z,78.45
2022-12-06T04:27:58.600Z,87.10
2022-12-06T04:31:45.977Z,49.35
2022-12-06T04:35:01.417Z,102.53
2022-12-06T04:38:15.210Z,52.67
2022-12-06T04:41:39.326Z,56.75
2022-12-06T04:45:32.609Z,43.45
2022-12-06T04:48:24.333Z,31.92
2022-12-06T04:51:37.593Z,23.17
2022-12-06T04:54:54.418Z,23.45
2022-12-06T04:58:15.566Z,22.73
2022-12-06T05:01:23.010Z,23.73
2022-12-06T05:04:27.002Z,24.42
2022-12-06T05:07:35.587Z,24.00
2022-12-06T05:21:55.413Z,24.05
2022-12-06T05:24:49.814Z,24.45
2022-12-06T05:27:35.691Z,24.98
2022-12-06T05:30:04.511Z,25.75
2022-12-06T05:32:32.305Z,24.88
2022-12-06T05:34:59.896Z,24.60
2022-12-06T05:37:27.518Z,26.05
2022-12-06T05:39:55.144Z,25.08
2022-12-06T05:42:22.825Z,24.88
2022-12-06T05:44:50.455Z,24.55
2022-12-06T05:47:18.082Z,25.85
2022-12-06T05:49:45.714Z,26.30
2022-12-06T05:52:13.311Z,35.65
2022-12-06T05:54:41.042Z,32.65
2022-12-06T05:57:08.624Z,42.25
2022-12-06T05:59:36.253Z,37.70
2022-12-06T06:02:03.959Z,31.98
2022-12-06T06:04:36.304Z,38.42
2022-12-06T06:21:28.877Z,30.25
2022-12-06T06:23:57.519Z,25.88
2022-12-06T06:26:25.112Z,28.77
2022-12-06T06:28:52.623Z,28.50
2022-12-06T06:31:20.672Z,43.08
2022-12-06T06:33:51.147Z,30.15
2022-12-06T06:36:19.005Z,27.42
2022-12-06T06:38:46.624Z,29.75
2022-12-06T06:41:14.032Z,30.75
2022-12-06T06:43:41.861Z,32.03
2022-12-06T06:46:10.689Z,34.50
2022-12-06T06:48:39.736Z,36.85
2022-12-06T06:51:10.815Z,38.22
2022-12-06T06:53:39.364Z,37.70
2022-12-06T06:56:07.763Z,37.47
2022-12-06T06:58:35.710Z,35.75
2022-12-06T07:01:07.092Z,40.15
2022-12-06T07:03:35.387Z,35.38
2022-12-06T07:06:07.590Z,36.55
2022-12-06T07:08:35.472Z,38.22
2022-12-06T07:11:02.921Z,40.58
2022-12-06T07:13:31.474Z,43.10
2022-12-06T07:15:59.241Z,46.42
2022-12-06T07:18:26.797Z,41.35
2022-12-06T07:21:06.802Z,37.05
2022-12-06T07:23:36.206Z,36.35
2022-12-06T07:26:16.769Z,33.28
2022-12-06T07:28:45.640Z,31.27
2022-12-06T07:31:24.649Z,33.85
2022-12-06T07:33:57.949Z,29.67
2022-12-06T07:36:26.775Z,30.73
2022-12-06T07:38:56.150Z,32.75
2022-12-06T07:41:44.370Z,33.33
2022-12-06T07:44:39.619Z,32.13
2022-12-06T07:47:07.091Z,29.73
2022-12-06T07:49:34.676Z,30.40
2022-12-06T07:52:02.496Z,31.20
2022-12-06T07:54:29.990Z,31.98
2022-12-06T07:56:57.799Z,32.90
2022-12-06T07:59:27.612Z,31.58
2022-12-06T08:01:55.204Z,29.90
2022-12-06T08:04:22.833Z,32.30
2022-12-06T08:06:50.836Z,31.77
2022-12-06T08:09:18.571Z,32.78
2022-12-06T08:11:46.318Z,31.15
2022-12-06T08:14:14.818Z,31.38
2022-12-06T08:16:42.396Z,34.80
2022-12-06T08:19:10.170Z,36.38
2022-12-06T08:21:37.685Z,33.22
2022-12-06T08:24:05.354Z,32.78
2022-12-06T08:26:32.858Z,32.13
2022-12-06T08:29:01.649Z,31.65
2022-12-06T08:31:36.877Z,32.35
2022-12-06T08:34:04.927Z,32.47
2022-12-06T08:36:32.471Z,32.90
2022-12-06T08:39:01.248Z,28.58
2022-12-06T08:41:47.291Z,30.42
2022-12-06T08:44:16.015Z,29.85
2022-12-06T08:46:43.742Z,29.48
2022-12-06T08:49:12.991Z,28.15
2022-12-06T08:51:40.952Z,28.63
2022-12-06T08:54:12.270Z,29.67
2022-12-06T08:56:39.881Z,28.55
2022-12-06T08:59:08.500Z,25.85
2022-12-06T09:01:38.278Z,29.25
2022-12-06T09:04:08.930Z,29.85
2022-12-06T09:06:38.207Z,27.73
2022-12-06T09:09:06.777Z,27.17
2022-12-06T09:11:34.512Z,28.52
2022-12-06T09:14:02.146Z,26.80
2022-12-06T09:16:29.857Z,26.35
2022-12-06T09:18:57.701Z,27.40
2022-12-06T09:21:30.633Z,28.77
2022-12-06T09:23:59.206Z,26.48
2022-12-06T09:26:28.079Z,28.35
2022-12-06T09:28:56.873Z,28.42
2022-12-06T09:31:25.328Z,28.67
2022-12-06T09:33:52.988Z,24.70
2022-12-06T09:36:52.130Z,27.77
2022-12-06T09:39:27.586Z,25.70
2022-12-06T09:44:55.322Z,27.35
2022-12-06T09:47:52.383Z,26.33
2022-12-06T09:51:03.525Z,26.35
2022-12-06T09:53:37.111Z,26.77
2022-12-06T09:56:16.943Z,26.05
2022-12-06T09:58:54.387Z,25.48
2022-12-06T10:01:48.139Z,26.42
2022-12-06T10:04:49.002Z,25.30
2022-12-06T10:07:30.625Z,24.98
2022-12-06T10:10:19.937Z,22.90
2022-12-06T10:12:47.622Z,22.23
2022-12-06T10:15:27.203Z,22.83
2022-12-06T10:18:05.367Z,20.13
2022-12-06T10:20:47.142Z,20.88
2022-12-06T10:23:36.252Z,22.65
2022-12-06T10:26:19.519Z,21.10
2022-12-06T10:29:12.697Z,22.55
2022-12-06T10:32:03.726Z,23.25
2022-12-06T10:34:55.673Z,22.00
2022-12-06T10:38:00.758Z,23.45
2022-12-06T10:40:37.148Z,23.15
2022-12-06T10:43:29.544Z,25.02
2022-12-06T10:46:37.059Z,22.35
2022-12-06T10:49:18.194Z,21.50
2022-12-06T10:51:55.066Z,23.42
2022-12-06T10:54:31.801Z,22.58
2022-12-06T10:57:04.940Z,22.83
2022-12-06T10:59:51.875Z,22.27
2022-12-06T11:02:46.241Z,21.58
2022-12-06T11:05:26.590Z,20.35
2022-12-06T11:08:02.822Z,22.58
2022-12-06T11:10:34.809Z,21.83
2022-12-06T11:13:24.729Z,21.90
2022-12-06T11:15:59.767Z,22.48
2022-12-06T11:18:30.085Z,23.02
2022-12-06T11:21:14.571Z,21.27
2022-12-06T11:24:03.457Z,21.40
2022-12-06T11:29:20.100Z,20.98
2022-12-06T11:31:52.209Z,21.95
2022-12-06T11:34:29.194Z,19.02
2022-12-06T11:37:00.602Z,21.48
2022-12-06T11:39:30.662Z,18.80
2022-12-06T11:42:01.704Z,19.63
2022-12-06T11:44:52.685Z,18.77
2022-12-06T11:47:22.976Z,19.30
2022-12-06T11:49:54.181Z,20.08
2022-12-06T11:52:34.537Z,18.83
2022-12-06T11:55:16.076Z,19.05
2022-12-06T11:58:06.834Z,19.33
2022-12-06T12:00:37.896Z,18.08
2022-12-06T12:03:30.321Z,18.23
2022-12-06T12:06:19.141Z,17.50
2022-12-06T12:08:52.813Z,18.48
2022-12-06T12:11:23.649Z,17.95
2022-12-06T12:13:59.530Z,16.70
2022-12-06T12:16:33.645Z,19.75
2022-12-06T12:19:18.498Z,17.45
2022-12-06T12:21:50.933Z,18.95
2022-12-06T12:24:56.570Z,18.90
2022-12-06T12:27:41.091Z,18.02
2022-12-06T12:30:36.416Z,19.55
2022-12-06T12:33:06.952Z,18.55
2022-12-06T12:35:45.997Z,18.20
2022-12-06T12:38:18.985Z,19.42
2022-12-06T12:40:50.173Z,19.30
2022-12-06T12:43:25.330Z,19.63
2022-12-06T12:46:03.401Z,18.27
2022-12-06T12:48:31.138Z,17.75
2022-12-06T12:51:02.025Z,20.15
2022-12-06T12:53:41.979Z,19.98
2022-12-06T18:19:47.933Z,39.20
2022-12-06T18:22:15.763Z,41.40
2022-12-06T18:24:44.891Z,36.38
2022-12-06T18:27:12.865Z,38.83
2022-12-06T18:29:40.568Z,41.58
2022-12-06T18:32:15.677Z,37.72
2022-12-06T18:34:45.171Z,43.35
2022-12-06T18:37:12.784Z,37.53
2022-12-06T18:39:40.524Z,49.90
2022-12-06T18:42:08.160Z,43.05
2022-12-06T18:44:35.661Z,40.75
2022-12-06T18:47:03.236Z,39.00
2022-12-06T18:49:30.805Z,38.47
2022-12-06T18:51:58.347Z,51.03
2022-12-06T18:54:34.873Z,41.72
2022-12-06T18:57:02.531Z,40.28
2022-12-06T18:59:31.288Z,55.83
2022-12-06T19:02:05.219Z,44.28
2022-12-06T19:04:35.426Z,47.33
2022-12-06T19:07:02.977Z,37.25
2022-12-06T19:09:36.552Z,37.10
2022-12-06T19:12:05.019Z,46.70
2022-12-06T19:14:32.486Z,36.67
2022-12-06T19:17:00.119Z,44.00
2022-12-06T19:19:28.201Z,51.38
2022-12-06T21:19:55.455Z,40.95
2022-12-06T21:26:40.416Z,48.25
